createdAt,value
2022-12-26T00:00:42.982Z,101074.31
2022-12-26T00:03:47.611Z,101078.34
2022-12-26T00:06:51.351Z,101077.03
2022-12-26T00:09:55.037Z,101072.19
2022-12-26T00:13:39.658Z,101073.41
2022-12-26T00:16:24.489Z,101074.47
2022-12-26T00:19:27.918Z,101075.78
2022-12-26T00:22:31.810Z,101071.59
2022-12-26T00:25:37.033Z,101073.47
2022-12-26T00:28:41.649Z,101077.34
2022-12-26T00:31:44.844Z,101072.72
2022-12-26T00:35:08.586Z,101078.81
2022-12-26T00:38:12.515Z,101073.34
2022-12-26T00:41:18.797Z,101061.81
2022-12-26T00:44:25.478Z,101059.63
2022-12-26T00:47:30.330Z,101070.97
2022-12-26T00:50:35.074Z,101078.69
2022-12-26T00:53:58.702Z,101079.56
2022-12-26T00:57:02.869Z,101069.66
2022-12-26T01:00:26.650Z,101074.91
2022-12-26T01:03:53.846Z,101079.59
2022-12-26T01:07:17.224Z,101086.88
2022-12-26T01:10:20.983Z,101075.38
2022-12-26T01:13:24.555Z,101076.16
2022-12-26T01:16:27.800Z,101075.78
2022-12-26T01:19:35.469Z,101075.59
2022-12-26T01:22:39.029Z,101071.09
2022-12-26T01:26:18.773Z,101067.87
2022-12-26T01:29:07.396Z,101058.59
2022-12-26T01:32:16.511Z,101060.44
2022-12-26T01:35:21.535Z,101057.00
2022-12-26T01:38:30.043Z,101063.03
2022-12-26T01:41:33.328Z,101058.41
2022-12-26T01:44:53.121Z,101044.06
2022-12-26T01:48:04.275Z,101043.84
2022-12-26T01:51:16.428Z,101044.44
2022-12-26T01:54:41.252Z,101046.84
2022-12-26T01:57:51.343Z,101043.22
2022-12-26T02:01:14.880Z,101039.34
2022-12-26T02:04:45.386Z,101035.91
2022-12-26T02:07:51.163Z,101035.12
2022-12-26T02:11:09.873Z,101038.34
2022-12-26T02:14:51.304Z,101028.84
2022-12-26T02:18:14.573Z,101026.59
2022-12-26T02:21:39.453Z,101017.91
2022-12-26T02:25:41.608Z,101027.78
2022-12-26T02:29:36.189Z,101027.37
2022-12-26T02:33:08.381Z,101021.47
2022-12-26T02:36:53.099Z,101010.78
2022-12-26T02:40:18.433Z,101032.69
2022-12-26T02:43:41.307Z,101026.84
2022-12-26T02:47:05.384Z,101025.59
2022-12-26T02:50:48.159Z,101010.63
2022-12-26T02:54:54.879Z,101001.94
2022-12-26T02:58:33.039Z,100985.34
2022-12-26T03:02:04.196Z,100969.22
2022-12-26T03:05:59.361Z,100987.13
2022-12-26T03:09:44.808Z,101007.28
2022-12-26T03:13:13.316Z,101000.56
2022-12-26T03:16:42.806Z,100993.69
2022-12-26T03:20:01.464Z,100987.88
2022-12-26T03:23:10.570Z,100996.25
2022-12-26T03:26:55.334Z,100988.75
2022-12-26T03:30:18.841Z,100987.69
2022-12-26T03:33:41.269Z,100984.22
2022-12-26T03:36:57.219Z,100996.06
2022-12-26T03:40:32.104Z,101001.06
2022-12-26T03:44:04.538Z,101007.31
2022-12-26T03:48:13.371Z,101001.88
2022-12-26T03:51:42.458Z,101012.06
2022-12-26T03:55:28.169Z,101015.69
2022-12-26T03:59:28.189Z,101009.47
2022-12-26T04:02:52.264Z,100995.50
2022-12-26T04:06:40.331Z,101006.09
2022-12-26T04:10:23.894Z,101018.78
2022-12-26T04:14:11.144Z,101020.69
2022-12-26T04:17:42.981Z,101026.22
2022-12-26T04:21:32.443Z,101028.66
2022-12-26T04:25:03.865Z,101032.34
2022-12-26T04:28:26.253Z,101029.91
2022-12-26T04:32:24.680Z,101031.53
2022-12-26T04:35:53.408Z,101028.28
2022-12-26T04:39:21.298Z,101030.28
2022-12-26T04:42:45.680Z,101035.44
2022-12-26T04:45:50.785Z,101021.06
2022-12-26T04:49:37.293Z,101029.06
2022-12-26T04:53:00.866Z,101033.37
2022-12-26T04:56:06.590Z,101025.03
2022-12-26T04:59:11.717Z,101008.09
2022-12-26T05:02:34.613Z,101019.28
2022-12-26T05:06:03.131Z,101013.63
2022-12-26T05:09:29.931Z,101021.28
2022-12-26T05:12:33.086Z,101015.72
2022-12-26T05:15:57.432Z,101019.50
2022-12-26T05:19:19.366Z,101010.19
2022-12-26T05:22:45.275Z,101017.44
2022-12-26T05:26:08.371Z,101026.00
2022-12-26T05:29:13.500Z,101026.47
2022-12-26T05:32:39.016Z,101006.22
2022-12-26T05:36:03.297Z,101016.56
2022-12-26T05:39:10.034Z,101008.03
2022-12-26T05:42:14.448Z,101001.34
2022-12-26T05:45:18.151Z,101004.59
2022-12-26T05:48:22.329Z,100991.44
2022-12-26T05:51:28.810Z,100990.91
2022-12-26T05:54:32.048Z,100987.56
2022-12-26T05:57:36.313Z,100988.09
2022-12-26T06:00:41.191Z,100994.22
2022-12-26T06:03:51.569Z,101003.31
2022-12-26T06:06:56.814Z,101007.34
2022-12-26T06:10:00.910Z,101014.38
2022-12-26T06:13:25.829Z,101015.03
2022-12-26T06:16:29.839Z,101005.19
2022-12-26T06:19:56.578Z,101008.44
2022-12-26T06:23:00.546Z,101006.53
2022-12-26T06:26:04.937Z,100994.75
2022-12-26T06:29:16.749Z,100984.56
2022-12-26T06:32:20.914Z,100978.88
2022-12-26T06:35:25.984Z,100987.66
2022-12-26T06:38:29.964Z,100994.41
2022-12-26T06:41:35.374Z,100990.91
2022-12-26T06:44:46.336Z,100991.91
2022-12-26T06:48:11.698Z,100999.19
2022-12-26T06:51:25.035Z,101003.50
2022-12-26T06:54:36.300Z,100999.19
2022-12-26T06:57:59.701Z,100994.97
2022-12-26T07:01:14.421Z,100999.03
2022-12-26T07:04:37.203Z,100994.62
2022-12-26T07:07:41.813Z,100982.16
2022-12-26T07:11:05.629Z,100987.62
2022-12-26T07:14:09.992Z,100980.03
2022-12-26T07:17:13.426Z,100991.78
2022-12-26T07:20:17.034Z,101008.34
2022-12-26T07:23:22.340Z,101025.72
2022-12-26T07:26:47.050Z,101033.09
2022-12-26T07:29:51.350Z,101028.34
2022-12-26T07:32:55.318Z,101028.44
2022-12-26T07:36:20.926Z,101025.50
2022-12-26T07:39:52.388Z,101040.50
2022-12-26T07:43:31.406Z,101028.62
2022-12-26T07:46:35.856Z,101031.13
2022-12-26T07:49:42.191Z,101030.56
2022-12-26T07:52:49.794Z,101032.03
2022-12-26T07:55:54.312Z,101031.53
2022-12-26T07:58:59.877Z,101029.41
2022-12-26T08:02:11.449Z,101034.06
2022-12-26T08:05:16.822Z,101038.38
2022-12-26T08:08:23.774Z,101049.88
2022-12-26T08:11:33.434Z,101038.38
2022-12-26T08:14:37.866Z,101046.66
2022-12-26T08:17:41.414Z,101035.81
2022-12-26T08:20:44.379Z,101025.69
2022-12-26T08:23:48.655Z,101040.28
2022-12-26T08:26:52.153Z,101051.81
2022-12-26T08:29:55.409Z,101059.38
2022-12-26T08:33:00.119Z,101057.22
2022-12-26T08:36:05.880Z,101063.28
2022-12-26T08:39:08.779Z,101062.50
2022-12-26T08:42:21.105Z,101060.13
2022-12-26T08:45:24.229Z,101059.16
2022-12-26T08:48:27.475Z,101065.84
2022-12-26T08:51:32.078Z,101058.56
2022-12-26T08:54:35.351Z,101064.06
2022-12-26T08:57:38.264Z,101062.66
2022-12-26T09:00:41.525Z,101066.09
2022-12-26T09:03:47.001Z,101062.22
2022-12-26T09:07:09.996Z,101057.75
2022-12-26T09:10:13.496Z,101066.06
2022-12-26T09:13:16.887Z,101056.09
2022-12-26T09:16:26.764Z,101061.56
2022-12-26T09:19:32.884Z,101068.22
2022-12-26T09:22:56.709Z,101072.66
2022-12-26T09:26:16.025Z,101075.28
2022-12-26T09:29:39.317Z,101070.97
2022-12-26T09:32:45.076Z,101074.03
2022-12-26T09:36:18.965Z,101074.28
2022-12-26T09:39:22.196Z,101072.28
2022-12-26T09:42:40.201Z,101082.31
2022-12-26T09:46:11.386Z,101073.25
2022-12-26T09:49:36.122Z,101076.63
2022-12-26T09:53:07.807Z,101083.31
2022-12-26T09:56:37.054Z,101068.81
2022-12-26T09:59:57.177Z,101074.28
2022-12-26T10:03:57.095Z,101076.53
2022-12-26T10:07:20.389Z,101079.81
2022-12-26T10:10:55.848Z,101079.59
2022-12-26T10:14:09.824Z,101080.44
2022-12-26T10:17:23.196Z,101073.03
2022-12-26T10:21:02.555Z,101079.69
2022-12-26T10:24:17.038Z,101072.81
2022-12-26T10:27:22.168Z,101075.06
2022-12-26T10:30:51.107Z,101071.00
2022-12-26T10:34:43.803Z,101058.22
2022-12-26T10:38:44.438Z,101050.09
2022-12-26T10:41:52.256Z,101037.50
2022-12-26T10:52:39.455Z,101019.16
2022-12-26T10:55:43.416Z,101012.91
2022-12-26T10:58:58.601Z,101012.00
2022-12-26T11:02:33.177Z,101006.16
2022-12-26T11:10:08.295Z,100996.19
2022-12-26T11:13:24.263Z,100987.91
2022-12-26T11:16:39.872Z,100981.50
2022-12-26T11:19:44.894Z,100969.50
2022-12-26T11:22:48.408Z,100971.97
2022-12-26T11:26:09.519Z,100967.72
2022-12-26T13:19:16.957Z,100918.25
2022-12-26T18:18:10.706Z,100871.75
2022-12-26T18:20:04.294Z,100877.09
2022-12-26T18:29:15.163Z,100865.91
2022-12-26T18:33:00.877Z,100854.25
2022-12-26T18:37:20.009Z,100852.41
2022-12-26T18:41:46.005Z,100844.75
2022-12-26T18:46:00.021Z,100849.34
2022-12-26T18:50:20.938Z,100848.97
2022-12-26T18:54:25.163Z,100845.06
2022-12-26T18:58:27.937Z,100851.25
2022-12-26T19:02:32.496Z,100849.63
2022-12-26T19:10:47.898Z,100839.94
2022-12-26T19:15:01.275Z,100832.69
2022-12-26T19:19:04.884Z,100834.66
2022-12-26T19:22:54.735Z,100840.72
2022-12-26T19:27:00.489Z,100842.53
2022-12-26T19:30:46.096Z,100834.31
2022-12-26T19:34:31.272Z,100849.63
2022-12-26T19:38:15.266Z,100847.19
2022-12-26T19:42:23.185Z,100847.81
2022-12-26T19:46:11.343Z,100852.88
2022-12-26T19:50:16.986Z,100850.91
2022-12-26T19:53:59.981Z,100854.09
2022-12-26T19:57:41.054Z,100853.34
2022-12-26T20:01:30.628Z,100848.28
2022-12-26T20:05:37.475Z,100851.13
2022-12-26T20:09:23.351Z,100854.56
2022-12-26T20:13:27.461Z,100861.03
2022-12-26T20:17:15.101Z,100869.53
2022-12-26T20:20:54.313Z,100869.97
2022-12-26T20:24:57.807Z,100912.47
2022-12-26T20:28:41.179Z,100934.06
2022-12-26T20:32:50.159Z,100892.16
2022-12-26T20:36:37.083Z,100891.81
2022-12-26T20:40:28.867Z,100878.88
2022-12-26T20:44:15.261Z,100888.00
2022-12-26T20:47:48.195Z,100881.75
2022-12-26T20:51:52.079Z,100870.91
2022-12-26T21:02:37.491Z,100844.31
2022-12-26T21:06:15.933Z,100843.13
2022-12-26T21:09:59.420Z,100858.62
2022-12-26T21:14:10.917Z,100853.41
2022-12-26T21:18:05.388Z,100852.41
2022-12-26T21:21:42.258Z,100850.41
2022-12-26T21:25:12.471Z,100857.06
2022-12-26T21:33:00.566Z,100897.09
2022-12-26T21:36:32.183Z,100891.13
2022-12-26T21:40:37.715Z,100890.72
2022-12-26T21:44:06.758Z,100886.31
2022-12-26T21:47:53.471Z,100889.19
2022-12-26T21:51:36.314Z,100879.91
2022-12-26T21:55:40.496Z,100874.25
2022-12-26T21:59:54.703Z,100866.38
2022-12-26T22:04:14.033Z,100861.53
2022-12-26T22:08:03.806Z,100882.66
2022-12-26T22:12:27.892Z,100883.50
2022-12-26T22:16:17.328Z,100883.09
2022-12-26T22:20:02.282Z,100886.94
2022-12-26T22:23:47.195Z,100880.72
2022-12-26T22:27:18.283Z,100877.06
2022-12-26T22:31:26.372Z,100855.91
2022-12-26T22:35:34.575Z,100876.47
2022-12-26T22:39:39.267Z,100875.50
2022-12-26T22:42:59.178Z,100877.72
2022-12-26T22:47:09.303Z,100881.50
2022-12-26T22:50:54.991Z,100863.34
2022-12-26T22:54:58.506Z,100856.53
2022-12-26T22:58:46.686Z,100859.75
2022-12-26T23:02:50.171Z,100852.91
2022-12-26T23:06:40.808Z,100845.62
2022-12-26T23:10:26.827Z,100858.31
2022-12-26T23:14:14.817Z,100877.28
2022-12-26T23:18:46.717Z,100881.91
2022-12-26T23:22:15.665Z,100901.69
2022-12-26T23:26:22.281Z,100913.78
2022-12-26T23:30:18.098Z,100916.22
2022-12-26T23:34:07.939Z,100916.22
2022-12-26T23:38:00.103Z,100909.38
2022-12-26T23:42:08.206Z,100912.00
2022-12-26T23:46:12.282Z,100903.34
2022-12-26T23:50:08.657Z,100890.44
2022-12-26T23:54:12.503Z,100904.34
2022-12-26T23:58:16.378Z,100917.25
